sensor_id;sensor_type;location;lat;lon;timestamp;pressure;altitude;pressure_sealevel;temperature;humidity
30873;BME280;17579;42.690;2.586;2022-07-03T00:01:54;97465.19;;;25.02;39.03
30873;BME280;17579;42.690;2.586;2022-07-03T00:04:20;97465.19;;;25.02;39.14
30873;BME280;17579;42.690;2.586;2022-07-03T00:06:46;97461.91;;;25.00;39.13
30873;BME280;17579;42.690;2.586;2022-07-03T00:09:12;97459.38;;;24.98;39.41
30873;BME280;17579;42.690;2.586;2022-07-03T00:11:38;97474.56;;;24.99;38.96
30873;BME280;17579;42.690;2.586;2022-07-03T00:14:04;97469.16;;;24.99;39.39
30873;BME280;17579;42.690;2.586;2022-07-03T00:16:30;97464.81;;;24.98;39.42
30873;BME280;17579;42.690;2.586;2022-07-03T00:18:56;97461.53;;;24.96;39.51
30873;BME280;17579;42.690;2.586;2022-07-03T00:21:41;97460.31;;;24.92;39.38
30873;BME280;17579;42.690;2.586;2022-07-03T00:24:16;97458.00;;;24.96;39.52
30873;BME280;17579;42.690;2.586;2022-07-03T00:26:44;97456.69;;;24.98;39.91
30873;BME280;17579;42.690;2.586;2022-07-03T00:29:14;97460.47;;;24.97;39.98
30873;BME280;17579;42.690;2.586;2022-07-03T00:31:41;97463.19;;;24.97;39.75
30873;BME280;17579;42.690;2.586;2022-07-03T00:34:08;97462.22;;;24.92;39.26
30873;BME280;17579;42.690;2.586;2022-07-03T00:36:37;97457.50;;;24.87;39.95
30873;BME280;17579;42.690;2.586;2022-07-03T00:39:04;97457.38;;;24.82;39.78
30873;BME280;17579;42.690;2.586;2022-07-03T00:41:32;97456.78;;;24.80;40.17
30873;BME280;17579;42.690;2.586;2022-07-03T00:43:58;97469.47;;;24.79;40.04
30873;BME280;17579;42.690;2.586;2022-07-03T00:46:26;97465.09;;;24.78;39.89
30873;BME280;17579;42.690;2.586;2022-07-03T00:48:53;97445.81;;;24.75;40.29
30873;BME280;17579;42.690;2.586;2022-07-03T00:51:28;97449.47;;;24.68;40.16
30873;BME280;17579;42.690;2.586;2022-07-03T00:53:56;97445.44;;;24.71;39.99
30873;BME280;17579;42.690;2.586;2022-07-03T00:56:25;97440.28;;;24.69;40.55
30873;BME280;17579;42.690;2.586;2022-07-03T00:58:53;97436.53;;;24.70;40.17
30873;BME280;17579;42.690;2.586;2022-07-03T01:01:21;97441.34;;;24.68;40.63
30873;BME280;17579;42.690;2.586;2022-07-03T01:03:48;97434.06;;;24.69;40.33
30873;BME280;17579;42.690;2.586;2022-07-03T01:06:20;97437.56;;;24.69;40.86
30873;BME280;17579;42.690;2.586;2022-07-03T01:08:50;97436.75;;;24.69;40.63
30873;BME280;17579;42.690;2.586;2022-07-03T01:11:25;97424.03;;;24.69;40.61
30873;BME280;17579;42.690;2.586;2022-07-03T01:14:00;97428.66;;;24.69;40.49
30873;BME280;17579;42.690;2.586;2022-07-03T01:27:35;97412.78;;;24.72;41.25
30873;BME280;17579;42.690;2.586;2022-07-03T01:30:07;97404.06;;;24.70;40.89
30873;BME280;17579;42.690;2.586;2022-07-03T01:32:44;97409.13;;;24.67;40.88
30873;BME280;17579;42.690;2.586;2022-07-03T01:35:21;97411.00;;;24.66;40.82
30873;BME280;17579;42.690;2.586;2022-07-03T01:37:48;97403.03;;;24.71;41.08
30873;BME280;17579;42.690;2.586;2022-07-03T01:40:15;97400.78;;;24.68;41.29
30873;BME280;17579;42.690;2.586;2022-07-03T01:42:42;97400.56;;;24.70;41.42
30873;BME280;17579;42.690;2.586;2022-07-03T01:45:10;97398.91;;;24.69;41.18
30873;BME280;17579;42.690;2.586;2022-07-03T01:47:42;97408.91;;;24.68;41.43
30873;BME280;17579;42.690;2.586;2022-07-03T01:50:11;97399.38;;;24.66;41.24
30873;BME280;17579;42.690;2.586;2022-07-03T01:52:40;97398.56;;;24.65;41.55
30873;BME280;17579;42.690;2.586;2022-07-03T01:55:07;97392.91;;;24.67;41.65
30873;BME280;17579;42.690;2.586;2022-07-03T01:57:44;97394.44;;;24.63;41.23
30873;BME280;17579;42.690;2.586;2022-07-03T02:00:11;97392.91;;;24.67;41.15
30873;BME280;17579;42.690;2.586;2022-07-03T02:02:54;97391.94;;;24.61;41.37
30873;BME280;17579;42.690;2.586;2022-07-03T02:05:29;97383.38;;;24.64;41.24
30873;BME280;17579;42.690;2.586;2022-07-03T02:10:34;97383.84;;;24.61;41.24
30873;BME280;17579;42.690;2.586;2022-07-03T02:13:02;97382.31;;;24.65;41.44
30873;BME280;17579;42.690;2.586;2022-07-03T02:15:33;97389.59;;;24.65;41.35
30873;BME280;17579;42.690;2.586;2022-07-03T02:20:58;97385.22;;;24.64;41.46
30873;BME280;17579;42.690;2.586;2022-07-03T02:23:26;97389.34;;;24.66;41.78
30873;BME280;17579;42.690;2.586;2022-07-03T02:25:55;97389.13;;;24.68;41.63
30873;BME280;17579;42.690;2.586;2022-07-03T02:30:52;97392.91;;;24.67;41.81
30873;BME280;17579;42.690;2.586;2022-07-03T02:33:25;97386.66;;;24.66;41.26
30873;BME280;17579;42.690;2.586;2022-07-03T02:35:54;97379.16;;;24.68;41.55
30873;BME280;17579;42.690;2.586;2022-07-03T02:38:23;97374.31;;;24.70;41.35
30873;BME280;17579;42.690;2.586;2022-07-03T02:46:11;97358.78;;;24.66;41.15
30873;BME280;17579;42.690;2.586;2022-07-03T02:48:51;97356.66;;;24.68;41.73
30873;BME280;17579;42.690;2.586;2022-07-03T02:51:22;97351.16;;;24.63;41.53
30873;BME280;17579;42.690;2.586;2022-07-03T02:54:04;97353.44;;;24.59;41.39
30873;BME280;17579;42.690;2.586;2022-07-03T02:56:57;97351.97;;;24.63;41.55
30873;BME280;17579;42.690;2.586;2022-07-03T03:02:19;97358.28;;;24.57;41.40
30873;BME280;17579;42.690;2.586;2022-07-03T03:04:58;97363.31;;;24.53;41.51
30873;BME280;17579;42.690;2.586;2022-07-03T03:07:34;97366.63;;;24.55;41.23
30873;BME280;17579;42.690;2.586;2022-07-03T03:10:00;97379.91;;;24.57;41.45
30873;BME280;17579;42.690;2.586;2022-07-03T03:12:30;97382.72;;;24.50;40.96
30873;BME280;17579;42.690;2.586;2022-07-03T03:15:02;97369.44;;;24.49;41.51
30873;BME280;17579;42.690;2.586;2022-07-03T03:17:43;97375.31;;;24.46;41.52
30873;BME280;17579;42.690;2.586;2022-07-03T03:20:15;97375.31;;;24.46;41.30
30873;BME280;17579;42.690;2.586;2022-07-03T03:25:19;97358.03;;;24.47;41.40
30873;BME280;17579;42.690;2.586;2022-07-03T03:27:45;97358.28;;;24.45;40.99
30873;BME280;17579;42.690;2.586;2022-07-03T03:30:11;97353.28;;;24.42;41.07
30873;BME280;17579;42.690;2.586;2022-07-03T03:32:38;97345.88;;;24.37;40.91
30873;BME280;17579;42.690;2.586;2022-07-03T03:35:05;97342.22;;;24.32;41.22
30873;BME280;17579;42.690;2.586;2022-07-03T03:37:30;97346.69;;;24.26;41.26
30873;BME280;17579;42.690;2.586;2022-07-03T03:39:57;97345.50;;;24.22;40.71
30873;BME280;17579;42.690;2.586;2022-07-03T03:42:23;97345.13;;;24.18;41.04
30873;BME280;17579;42.690;2.586;2022-07-03T03:44:48;97344.53;;;24.16;40.93
30873;BME280;17579;42.690;2.586;2022-07-03T03:47:14;97353.09;;;24.13;40.90
30873;BME280;17579;42.690;2.586;2022-07-03T03:49:39;97348.63;;;24.07;40.38
30873;BME280;17579;42.690;2.586;2022-07-03T03:52:06;97350.97;;;24.03;40.91
30873;BME280;17579;42.690;2.586;2022-07-03T03:54:32;97347.66;;;24.01;40.83
30873;BME280;17579;42.690;2.586;2022-07-03T03:57:15;97342.56;;;23.93;40.80
30873;BME280;17579;42.690;2.586;2022-07-03T03:59:40;97346.84;;;24.01;40.71
30873;BME280;17579;42.690;2.586;2022-07-03T04:02:06;97353.88;;;24.02;40.56
30873;BME280;17579;42.690;2.586;2022-07-03T04:04:31;97348.28;;;24.03;40.55
30873;BME280;17579;42.690;2.586;2022-07-03T04:06:57;97356.72;;;24.07;40.94
30873;BME280;17579;42.690;2.586;2022-07-03T04:09:22;97360.41;;;24.13;41.02
30873;BME280;17579;42.690;2.586;2022-07-03T04:11:48;97359.94;;;24.16;40.95
30873;BME280;17579;42.690;2.586;2022-07-03T04:14:14;97365.56;;;24.14;41.04
30873;BME280;17579;42.690;2.586;2022-07-03T04:16:40;97371.19;;;24.13;41.22
30873;BME280;17579;42.690;2.586;2022-07-03T04:19:05;97373.66;;;24.14;41.31
30873;BME280;17579;42.690;2.586;2022-07-03T04:21:31;97380.28;;;24.18;41.27
30873;BME280;17579;42.690;2.586;2022-07-03T04:23:56;97376.28;;;24.21;41.08
30873;BME280;17579;42.690;2.586;2022-07-03T04:26:22;97370.03;;;24.20;40.74
30873;BME280;17579;42.690;2.586;2022-07-03T04:28:48;97373.44;;;24.16;40.93
30873;BME280;17579;42.690;2.586;2022-07-03T04:31:13;97373.22;;;24.17;40.99
30873;BME280;17579;42.690;2.586;2022-07-03T04:33:39;97369.22;;;24.20;41.52
30873;BME280;17579;42.690;2.586;2022-07-03T04:36:04;97372.28;;;24.24;41.07
30873;BME280;17579;42.690;2.586;2022-07-03T04:38:31;97369.16;;;24.27;41.09
30873;BME280;17579;42.690;2.586;2022-07-03T04:40:57;97372.44;;;24.29;41.75
30873;BME280;17579;42.690;2.586;2022-07-03T04:43:22;97374.66;;;24.32;41.56
30873;BME280;17579;42.690;2.586;2022-07-03T04:45:48;97374.19;;;24.35;41.26
30873;BME280;17579;42.690;2.586;2022-07-03T04:48:13;97372.81;;;24.32;41.07
30873;BME280;17579;42.690;2.586;2022-07-03T04:50:39;97362.19;;;24.31;41.13
30873;BME280;17579;42.690;2.586;2022-07-03T04:53:05;97365.97;;;24.30;41.11
30873;BME280;17579;42.690;2.586;2022-07-03T04:55:30;97363.97;;;24.25;40.84
30873;BME280;17579;42.690;2.586;2022-07-03T04:57:56;97363.97;;;24.25;40.47
30873;BME280;17579;42.690;2.586;2022-07-03T05:00:21;97370.19;;;24.26;40.71
30873;BME280;17579;42.690;2.586;2022-07-03T05:02:47;97366.88;;;24.24;40.70
30873;BME280;17579;42.690;2.586;2022-07-03T05:05:13;97367.72;;;24.24;40.61
30873;BME280;17579;42.690;2.586;2022-07-03T05:07:39;97363.28;;;24.30;40.88
30873;BME280;17579;42.690;2.586;2022-07-03T05:10:05;97372.09;;;24.37;40.96
30873;BME280;17579;42.690;2.586;2022-07-03T05:12:30;97375.88;;;24.48;40.64
30873;BME280;17579;42.690;2.586;2022-07-03T05:14:56;97382.84;;;24.55;40.95
30873;BME280;17579;42.690;2.586;2022-07-03T05:17:22;97383.38;;;24.64;40.82
30873;BME280;17579;42.690;2.586;2022-07-03T05:19:48;97374.69;;;24.74;40.75
30873;BME280;17579;42.690;2.586;2022-07-03T05:22:33;97378.22;;;24.86;40.59
30873;BME280;17579;42.690;2.586;2022-07-03T05:24:59;97377.16;;;24.99;40.63
30873;BME280;17579;42.690;2.586;2022-07-03T05:27:24;97371.50;;;25.13;40.86
30873;BME280;17579;42.690;2.586;2022-07-03T05:29:50;97367.97;;;25.24;40.90
30873;BME280;17579;42.690;2.586;2022-07-03T05:32:15;97372.34;;;25.37;40.41
30873;BME280;17579;42.690;2.586;2022-07-03T05:34:41;97371.28;;;25.50;40.64
30873;BME280;17579;42.690;2.586;2022-07-03T05:37:06;97379.84;;;25.58;40.49
30873;BME280;17579;42.690;2.586;2022-07-03T05:39:32;97376.53;;;25.68;39.88
30873;BME280;17579;42.690;2.586;2022-07-03T05:41:58;97376.16;;;25.76;39.89
30873;BME280;17579;42.690;2.586;2022-07-03T05:44:23;97379.31;;;25.85;40.17
30873;BME280;17579;42.690;2.586;2022-07-03T05:46:49;97374.44;;;25.99;40.15
30873;BME280;17579;42.690;2.586;2022-07-03T05:49:14;97371.59;;;26.18;39.97
30873;BME280;17579;42.690;2.586;2022-07-03T05:51:40;97368.88;;;26.35;39.40
30873;BME280;17579;42.690;2.586;2022-07-03T05:54:06;97364.56;;;26.51;39.10
30873;BME280;17579;42.690;2.586;2022-07-03T05:56:31;97366.72;;;26.66;38.98
30873;BME280;17579;42.690;2.586;2022-07-03T05:58:57;97374.28;;;26.80;39.15
30873;BME280;17579;42.690;2.586;2022-07-03T06:01:23;97372.88;;;26.95;38.79
30873;BME280;17579;42.690;2.586;2022-07-03T06:03:49;97375.84;;;27.10;38.71
30873;BME280;17579;42.690;2.586;2022-07-03T06:06:15;97381.25;;;27.27;38.13
30873;BME280;17579;42.690;2.586;2022-07-03T06:08:40;97377.69;;;27.44;38.13
30873;BME280;17579;42.690;2.586;2022-07-03T06:11:06;97376.25;;;27.58;37.95
30873;BME280;17579;42.690;2.586;2022-07-03T06:13:32;97368.06;;;27.75;37.75
30873;BME280;17579;42.690;2.586;2022-07-03T06:15:57;97377.53;;;27.95;37.31
30873;BME280;17579;42.690;2.586;2022-07-03T06:18:23;97371.78;;;28.13;36.86
30873;BME280;17579;42.690;2.586;2022-07-03T06:20:48;97376.34;;;28.35;36.73
30873;BME280;17579;42.690;2.586;2022-07-03T06:23:14;97374.06;;;28.54;36.27
30873;BME280;17579;42.690;2.586;2022-07-03T06:25:40;97382.09;;;28.66;35.45
30873;BME280;17579;42.690;2.586;2022-07-03T06:28:05;97374.53;;;28.73;35.52
30873;BME280;17579;42.690;2.586;2022-07-03T06:30:31;97370.28;;;28.82;35.22
30873;BME280;17579;42.690;2.586;2022-07-03T06:32:57;97379.84;;;28.90;35.24
30873;BME280;17579;42.690;2.586;2022-07-03T06:35:22;97376.16;;;29.07;35.08
30873;BME280;17579;42.690;2.586;2022-07-03T06:37:48;97374.13;;;29.24;35.13
30873;BME280;17579;42.690;2.586;2022-07-03T06:40:14;97377.44;;;29.31;34.59
30873;BME280;17579;42.690;2.586;2022-07-03T06:42:39;97373.69;;;29.43;34.63
30873;BME280;17579;42.690;2.586;2022-07-03T06:45:05;97370.69;;;29.44;34.15
30873;BME280;17579;42.690;2.586;2022-07-03T06:47:36;97370.97;;;29.43;34.32
30873;BME280;17579;42.690;2.586;2022-07-03T06:50:02;97374.25;;;29.45;33.97
30873;BME280;17579;42.690;2.586;2022-07-03T06:52:28;97380.22;;;29.42;33.81
30873;BME280;17579;42.690;2.586;2022-07-03T06:54:53;97380.81;;;29.49;33.57
30873;BME280;17579;42.690;2.586;2022-07-03T06:57:19;97379.47;;;29.51;33.72
30873;BME280;17579;42.690;2.586;2022-07-03T06:59:45;97383.63;;;29.64;33.73
30873;BME280;17579;42.690;2.586;2022-07-03T07:02:10;97384.50;;;29.80;33.55
30873;BME280;17579;42.690;2.586;2022-07-03T07:04:36;97385.94;;;29.93;33.46
30873;BME280;17579;42.690;2.586;2022-07-03T07:07:02;97385.44;;;30.06;33.18
30873;BME280;17579;42.690;2.586;2022-07-03T07:09:27;97384.09;;;30.14;32.82
30873;BME280;17579;42.690;2.586;2022-07-03T07:11:53;97384.94;;;30.30;32.61
30873;BME280;17579;42.690;2.586;2022-07-03T07:14:19;97387.47;;;30.52;32.97
30873;BME280;17579;42.690;2.586;2022-07-03T07:16:44;97381.47;;;30.61;32.60
30873;BME280;17579;42.690;2.586;2022-07-03T07:19:10;97385.56;;;30.68;32.20
30873;BME280;17579;42.690;2.586;2022-07-03T07:21:36;97390.47;;;30.87;32.06
30873;BME280;17579;42.690;2.586;2022-07-03T07:24:01;97394.56;;;30.84;31.41
30873;BME280;17579;42.690;2.586;2022-07-03T07:26:27;97403.88;;;30.93;31.54
30873;BME280;17579;42.690;2.586;2022-07-03T07:28:52;97404.94;;;30.92;31.62
30873;BME280;17579;42.690;2.586;2022-07-03T07:31:18;97400.31;;;30.98;31.52
30873;BME280;17579;42.690;2.586;2022-07-03T07:33:43;97398.94;;;31.21;31.15
30873;BME280;17579;42.690;2.586;2022-07-03T07:36:09;97413.97;;;31.39;31.32
30873;BME280;17579;42.690;2.586;2022-07-03T07:38:35;97408.50;;;31.39;30.75
30873;BME280;17579;42.690;2.586;2022-07-03T07:41:00;97413.94;;;31.44;31.15
30873;BME280;17579;42.690;2.586;2022-07-03T07:43:26;97404.66;;;31.51;30.71
30873;BME280;17579;42.690;2.586;2022-07-03T07:45:51;97401.88;;;31.56;30.73
30873;BME280;17579;42.690;2.586;2022-07-03T07:48:18;97396.41;;;31.66;30.62
30873;BME280;17579;42.690;2.586;2022-07-03T07:50:44;97401.31;;;31.74;30.11
30873;BME280;17579;42.690;2.586;2022-07-03T07:53:10;97400.22;;;31.70;30.36
30873;BME280;17579;42.690;2.586;2022-07-03T07:55:35;97400.75;;;31.77;30.29
30873;BME280;17579;42.690;2.586;2022-07-03T07:58:01;97400.13;;;31.91;30.08
30873;BME280;17579;42.690;2.586;2022-07-03T08:00:27;97406.41;;;32.02;30.09
30873;BME280;17579;42.690;2.586;2022-07-03T08:02:52;97388.00;;;32.23;29.90
30873;BME280;17579;42.690;2.586;2022-07-03T08:05:30;97380.16;;;32.45;29.30
30873;BME280;17579;42.690;2.586;2022-07-03T08:13:02;97386.84;;;32.34;29.37
30873;BME280;17579;42.690;2.586;2022-07-03T08:15:27;97377.53;;;32.30;29.32
30873;BME280;17579;42.690;2.586;2022-07-03T08:17:53;97377.03;;;32.23;29.77
30873;BME280;17579;42.690;2.586;2022-07-03T08:20:19;97382.28;;;32.09;29.88
30873;BME280;17579;42.690;2.586;2022-07-03T08:22:44;97386.44;;;31.96;30.03
30873;BME280;17579;42.690;2.586;2022-07-03T08:25:10;97387.81;;;31.99;30.05
30873;BME280;17579;42.690;2.586;2022-07-03T08:27:36;97380.16;;;31.95;30.39
30873;BME280;17579;42.690;2.586;2022-07-03T08:30:02;97382.34;;;31.99;30.48
30873;BME280;17579;42.690;2.586;2022-07-03T08:32:27;97379.88;;;31.97;29.88
30873;BME280;17579;42.690;2.586;2022-07-03T08:34:53;97367.63;;;31.84;30.48
30873;BME280;17579;42.690;2.586;2022-07-03T08:37:19;97366.28;;;31.82;30.56
30873;BME280;17579;42.690;2.586;2022-07-03T08:39:45;97376.47;;;31.71;31.00
30873;BME280;17579;42.690;2.586;2022-07-03T08:42:11;97372.88;;;31.70;31.01
30873;BME280;17579;42.690;2.586;2022-07-03T08:44:38;97376.19;;;31.67;30.89
30873;BME280;17579;42.690;2.586;2022-07-03T08:47:07;97375.41;;;31.41;31.19
30873;BME280;17579;42.690;2.586;2022-07-03T08:49:34;97376.53;;;31.30;31.57
30873;BME280;17579;42.690;2.586;2022-07-03T08:52:00;97380.34;;;31.29;31.41
30873;BME280;17579;42.690;2.586;2022-07-03T08:54:26;97385.53;;;31.30;31.43
30873;BME280;17579;42.690;2.586;2022-07-03T08:56:52;97377.34;;;31.35;31.66
30873;BME280;17579;42.690;2.586;2022-07-03T08:59:20;97376.50;;;31.45;31.41
30873;BME280;17579;42.690;2.586;2022-07-03T09:01:46;97375.34;;;31.56;31.85
30873;BME280;17579;42.690;2.586;2022-07-03T09:04:12;97373.72;;;31.66;31.31
30873;BME280;17579;42.690;2.586;2022-07-03T09:06:43;97371.78;;;31.71;31.25
30873;BME280;17579;42.690;2.586;2022-07-03T09:09:09;97366.56;;;31.85;31.16
30873;BME280;17579;42.690;2.586;2022-07-03T09:11:37;97365.94;;;31.93;30.78
30873;BME280;17579;42.690;2.586;2022-07-03T09:14:03;97374.47;;;31.87;30.82
30873;BME280;17579;42.690;2.586;2022-07-03T09:16:35;97373.91;;;31.85;31.07
30873;BME280;17579;42.690;2.586;2022-07-03T09:19:01;97371.69;;;31.97;30.95
30873;BME280;17579;42.690;2.586;2022-07-03T09:21:39;97377.16;;;31.97;30.95
30873;BME280;17579;42.690;2.586;2022-07-03T09:24:09;97379.97;;;31.76;31.05
30873;BME280;17579;42.690;2.586;2022-07-03T09:26:36;97371.00;;;31.71;30.89
30873;BME280;17579;42.690;2.586;2022-07-03T09:29:14;97367.97;;;31.72;31.29
30873;BME280;17579;42.690;2.586;2022-07-03T09:31:40;97364.34;;;31.87;30.69
30873;BME280;17579;42.690;2.586;2022-07-03T09:34:06;97364.56;;;32.01;30.58
30873;BME280;17579;42.690;2.586;2022-07-03T09:36:45;97363.72;;;32.01;31.27
30873;BME280;17579;42.690;2.586;2022-07-03T09:44:35;97367.78;;;32.13;30.33
30873;BME280;17579;42.690;2.586;2022-07-03T09:47:16;97368.28;;;32.21;30.60
30873;BME280;17579;42.690;2.586;2022-07-03T09:49:56;97363.00;;;32.35;30.51
30873;BME280;17579;42.690;2.586;2022-07-03T09:52:42;97360.75;;;32.47;30.41
30873;BME280;17579;42.690;2.586;2022-07-03T09:57:34;97359.63;;;32.48;30.02
30873;BME280;17579;42.690;2.586;2022-07-03T10:00:25;97359.88;;;32.52;29.89
30873;BME280;17579;42.690;2.586;2022-07-03T10:08:02;97366.44;;;32.56;29.29
30873;BME280;17579;42.690;2.586;2022-07-03T10:10:31;97366.13;;;32.57;29.42
30873;BME280;17579;42.690;2.586;2022-07-03T10:12:57;97363.59;;;32.66;28.75
30873;BME280;17579;42.690;2.586;2022-07-03T10:15:29;97362.78;;;32.71;28.99
30873;BME280;17579;42.690;2.586;2022-07-03T10:17:58;97361.88;;;32.80;28.84
30873;BME280;17579;42.690;2.586;2022-07-03T10:20:30;97361.00;;;32.85;28.56
30873;BME280;17579;42.690;2.586;2022-07-03T10:22:59;97363.75;;;32.85;28.31
30873;BME280;17579;42.690;2.586;2022-07-03T10:25:25;97370.88;;;32.86;28.45
30873;BME280;17579;42.690;2.586;2022-07-03T10:27:51;97359.63;;;32.88;28.36
30873;BME280;17579;42.690;2.586;2022-07-03T10:30:19;97357.69;;;32.88;28.70
30873;BME280;17579;42.690;2.586;2022-07-03T10:32:47;97356.78;;;32.98;27.74
30873;BME280;17579;42.690;2.586;2022-07-03T10:35:15;97360.69;;;32.92;28.19
30873;BME280;17579;42.690;2.586;2022-07-03T10:43:43;97360.25;;;33.09;28.27
30873;BME280;17579;42.690;2.586;2022-07-03T10:46:22;97352.53;;;33.11;28.21
30873;BME280;17579;42.690;2.586;2022-07-03T10:49:00;97361.34;;;33.08;28.04
30873;BME280;17579;42.690;2.586;2022-07-03T10:54:14;97349.81;;;33.11;27.96
30873;BME280;17579;42.690;2.586;2022-07-03T11:02:35;97348.84;;;33.26;27.90
30873;BME280;17579;42.690;2.586;2022-07-03T11:07:34;97350.16;;;33.58;28.05
30873;BME280;17579;42.690;2.586;2022-07-03T11:15:28;97351.41;;;33.65;27.57
30873;BME280;17579;42.690;2.586;2022-07-03T11:20:58;97355.84;;;33.61;28.16
30873;BME280;17579;42.690;2.586;2022-07-03T11:26:00;97352.03;;;33.87;27.78
30873;BME280;17579;42.690;2.586;2022-07-03T11:41:16;97341.25;;;34.09;26.70
30873;BME280;17579;42.690;2.586;2022-07-03T11:43:55;97337.94;;;34.12;27.00
30873;BME280;17579;42.690;2.586;2022-07-03T11:46:22;97343.88;;;34.19;26.77
30873;BME280;17579;42.690;2.586;2022-07-03T11:48:49;97345.44;;;34.26;26.41
30873;BME280;17579;42.690;2.586;2022-07-03T11:51:15;97333.88;;;34.29;25.95
30873;BME280;17579;42.690;2.586;2022-07-03T11:53:41;97334.44;;;34.26;26.17
30873;BME280;17579;42.690;2.586;2022-07-03T11:56:09;97326.31;;;34.40;26.63
30873;BME280;17579;42.690;2.586;2022-07-03T11:58:50;97323.53;;;34.59;26.30
30873;BME280;17579;42.690;2.586;2022-07-03T12:06:18;97334.78;;;35.09;25.09
30873;BME280;17579;42.690;2.586;2022-07-03T12:08:44;97324.75;;;35.46;24.72
30873;BME280;17579;42.690;2.586;2022-07-03T12:11:14;97329.00;;;35.38;24.63
30873;BME280;17579;42.690;2.586;2022-07-03T12:13:40;97314.25;;;35.48;24.53
30873;BME280;17579;42.690;2.586;2022-07-03T12:16:10;97317.19;;;35.80;23.72
30873;BME280;17579;42.690;2.586;2022-07-03T12:18:45;97311.16;;;35.92;24.25
30873;BME280;17579;42.690;2.586;2022-07-03T12:21:13;97308.13;;;36.30;23.72
30873;BME280;17579;42.690;2.586;2022-07-03T12:23:46;97297.22;;;36.70;23.29
30873;BME280;17579;42.690;2.586;2022-07-03T12:26:12;97289.44;;;36.72;22.68
30873;BME280;17579;42.690;2.586;2022-07-03T12:28:39;97283.81;;;36.54;22.78
30873;BME280;17579;42.690;2.586;2022-07-03T12:31:05;97283.13;;;36.71;22.81
30873;BME280;17579;42.690;2.586;2022-07-03T12:33:31;97283.88;;;36.86;22.60
30873;BME280;17579;42.690;2.586;2022-07-03T12:36:07;97290.56;;;36.93;22.92
30873;BME280;17579;42.690;2.586;2022-07-03T12:38:36;97298.09;;;37.10;23.19
30873;BME280;17579;42.690;2.586;2022-07-03T12:41:09;97290.75;;;36.97;23.22
30873;BME280;17579;42.690;2.586;2022-07-03T12:43:39;97288.88;;;37.15;23.01
30873;BME280;17579;42.690;2.586;2022-07-03T12:48:53;97284.41;;;37.28;22.90
30873;BME280;17579;42.690;2.586;2022-07-03T12:51:37;97275.50;;;37.31;22.84
30873;BME280;17579;42.690;2.586;2022-07-03T12:54:04;97285.31;;;37.64;22.34
30873;BME280;17579;42.690;2.586;2022-07-03T12:56:30;97269.81;;;37.27;22.46
30873;BME280;17579;42.690;2.586;2022-07-03T12:58:55;97286.09;;;37.15;22.61
30873;BME280;17579;42.690;2.586;2022-07-03T13:01:33;97282.16;;;36.99;22.75
30873;BME280;17579;42.690;2.586;2022-07-03T13:04:01;97280.53;;;36.98;22.86
30873;BME280;17579;42.690;2.586;2022-07-03T13:06:27;97274.41;;;37.09;22.53
30873;BME280;17579;42.690;2.586;2022-07-03T13:09:02;97286.59;;;37.08;22.55
30873;BME280;17579;42.690;2.586;2022-07-03T13:11:33;97279.78;;;37.15;22.25
30873;BME280;17579;42.690;2.586;2022-07-03T13:14:18;97285.56;;;36.96;22.42
30873;BME280;17579;42.690;2.586;2022-07-03T13:19:12;97268.38;;;37.30;21.95
30873;BME280;17579;42.690;2.586;2022-07-03T13:21:39;97274.31;;;37.23;22.08
30873;BME280;17579;42.690;2.586;2022-07-03T13:24:06;97268.31;;;37.21;22.12
30873;BME280;17579;42.690;2.586;2022-07-03T13:26:33;97263.19;;;37.29;21.94
30873;BME280;17579;42.690;2.586;2022-07-03T13:28:59;97259.59;;;37.37;22.24
30873;BME280;17579;42.690;2.586;2022-07-03T13:31:25;97256.06;;;37.45;22.15
30873;BME280;17579;42.690;2.586;2022-07-03T13:33:51;97259.94;;;37.44;21.76
30873;BME280;17579;42.690;2.586;2022-07-03T13:36:16;97264.69;;;37.12;22.34
30873;BME280;17579;42.690;2.586;2022-07-03T13:38:43;97267.78;;;37.10;22.57
30873;BME280;17579;42.690;2.586;2022-07-03T13:41:09;97255.78;;;37.15;22.77
30873;BME280;17579;42.690;2.586;2022-07-03T13:43:34;97262.56;;;37.09;22.94
30873;BME280;17579;42.690;2.586;2022-07-03T13:46:00;97252.28;;;36.92;22.99
30873;BME280;17579;42.690;2.586;2022-07-03T13:48:26;97269.41;;;36.80;23.17
30873;BME280;17579;42.690;2.586;2022-07-03T13:50:51;97253.44;;;36.68;23.63
30873;BME280;17579;42.690;2.586;2022-07-03T13:53:17;97252.25;;;36.61;23.92
30873;BME280;17579;42.690;2.586;2022-07-03T13:55:43;97252.63;;;36.36;23.80
30873;BME280;17579;42.690;2.586;2022-07-03T13:58:08;97251.69;;;36.27;24.16
30873;BME280;17579;42.690;2.586;2022-07-03T14:00:34;97247.06;;;36.14;24.49
30873;BME280;17579;42.690;2.586;2022-07-03T14:03:01;97242.66;;;35.90;24.46
30873;BME280;17579;42.690;2.586;2022-07-03T14:05:27;97244.34;;;35.63;24.79
30873;BME280;17579;42.690;2.586;2022-07-03T14:07:54;97243.56;;;35.35;25.02
30873;BME280;17579;42.690;2.586;2022-07-03T14:10:20;97237.44;;;35.24;25.40
30873;BME280;17579;42.690;2.586;2022-07-03T14:12:48;97237.75;;;35.22;25.77
30873;BME280;17579;42.690;2.586;2022-07-03T14:15:14;97236.84;;;35.13;24.85
30873;BME280;17579;42.690;2.586;2022-07-03T14:17:40;97247.44;;;35.06;25.36
30873;BME280;17579;42.690;2.586;2022-07-03T14:20:09;97253.84;;;35.01;25.99
30873;BME280;17579;42.690;2.586;2022-07-03T14:22:35;97255.16;;;35.04;25.66
30873;BME280;17579;42.690;2.586;2022-07-03T14:25:01;97251.69;;;34.84;25.38
30873;BME280;17579;42.690;2.586;2022-07-03T14:27:26;97249.41;;;34.73;25.96
30873;BME280;17579;42.690;2.586;2022-07-03T14:30:05;97268.34;;;34.41;26.36
30873;BME280;17579;42.690;2.586;2022-07-03T14:32:42;97256.84;;;34.20;26.51
30873;BME280;17579;42.690;2.586;2022-07-03T14:35:08;97271.94;;;34.04;26.50
30873;BME280;17579;42.690;2.586;2022-07-03T14:37:34;97271.19;;;33.79;26.95
30873;BME280;17579;42.690;2.586;2022-07-03T14:39:59;97274.63;;;33.65;27.36
30873;BME280;17579;42.690;2.586;2022-07-03T14:42:25;97272.63;;;33.52;27.61
30873;BME280;17579;42.690;2.586;2022-07-03T14:44:51;97262.44;;;33.33;27.69